sensor_id;sensor_type;location;lat;lon;timestamp;P1;durP1;ratioP1;P2;durP2;ratioP2
5323;SDS011;2684;48.154;11.538;2022-08-21T00:01:36;9.37;;;8.83;;
5323;SDS011;2684;48.154;11.538;2022-08-21T00:04:04;9.33;;;8.83;;
5323;SDS011;2684;48.154;11.538;2022-08-21T00:06:31;9.90;;;9.20;;
5323;SDS011;2684;48.154;11.538;2022-08-21T00:13:03;9.57;;;9.07;;
5323;SDS011;2684;48.154;11.538;2022-08-21T00:15:32;10.17;;;9.50;;
5323;SDS011;2684;48.154;11.538;2022-08-21T00:18:00;10.40;;;9.60;;
5323;SDS011;2684;48.154;11.538;2022-08-21T00:20:27;9.70;;;9.00;;
5323;SDS011;2684;48.154;11.538;2022-08-21T00:22:54;9.40;;;8.90;;
5323;SDS011;2684;48.154;11.538;2022-08-21T00:25:21;10.00;;;9.40;;
5323;SDS011;2684;48.154;11.538;2022-08-21T00:27:48;9.17;;;8.57;;
5323;SDS011;2684;48.154;11.538;2022-08-21T00:30:18;9.27;;;8.77;;
5323;SDS011;2684;48.154;11.538;2022-08-21T00:32:46;9.30;;;8.80;;
5323;SDS011;2684;48.154;11.538;2022-08-21T00:35:14;9.53;;;8.73;;
5323;SDS011;2684;48.154;11.538;2022-08-21T00:37:43;9.37;;;8.87;;
5323;SDS011;2684;48.154;11.538;2022-08-21T00:40:11;9.50;;;9.00;;
5323;SDS011;2684;48.154;11.538;2022-08-21T00:42:39;9.53;;;8.93;;
5323;SDS011;2684;48.154;11.538;2022-08-21T00:45:06;9.70;;;9.20;;
5323;SDS011;2684;48.154;11.538;2022-08-21T00:47:35;10.07;;;9.47;;
5323;SDS011;2684;48.154;11.538;2022-08-21T00:50:03;9.80;;;9.30;;
5323;SDS011;2684;48.154;11.538;2022-08-21T00:52:33;9.50;;;9.00;;
5323;SDS011;2684;48.154;11.538;2022-08-21T00:55:02;9.80;;;9.20;;
5323;SDS011;2684;48.154;11.538;2022-08-21T00:57:32;9.60;;;9.10;;
5323;SDS011;2684;48.154;11.538;2022-08-21T01:00:05;9.63;;;9.13;;
5323;SDS011;2684;48.154;11.538;2022-08-21T01:02:34;9.23;;;8.73;;
5323;SDS011;2684;48.154;11.538;2022-08-21T01:05:02;9.50;;;9.00;;
5323;SDS011;2684;48.154;11.538;2022-08-21T01:07:30;9.83;;;9.13;;
5323;SDS011;2684;48.154;11.538;2022-08-21T01:09:57;9.60;;;9.10;;
5323;SDS011;2684;48.154;11.538;2022-08-21T01:12:24;9.30;;;8.80;;
5323;SDS011;2684;48.154;11.538;2022-08-21T01:14:52;9.20;;;8.70;;
5323;SDS011;2684;48.154;11.538;2022-08-21T01:17:19;9.33;;;8.80;;
5323;SDS011;2684;48.154;11.538;2022-08-21T01:19:48;9.50;;;9.00;;
5323;SDS011;2684;48.154;11.538;2022-08-21T01:22:16;9.40;;;8.90;;
5323;SDS011;2684;48.154;11.538;2022-08-21T01:24:44;9.43;;;8.93;;
5323;SDS011;2684;48.154;11.538;2022-08-21T01:27:11;9.57;;;9.07;;
5323;SDS011;2684;48.154;11.538;2022-08-21T01:29:39;9.33;;;8.83;;
5323;SDS011;2684;48.154;11.538;2022-08-21T01:32:10;9.73;;;9.10;;
5323;SDS011;2684;48.154;11.538;2022-08-21T01:34:41;9.57;;;9.07;;
5323;SDS011;2684;48.154;11.538;2022-08-21T01:37:09;9.33;;;8.83;;
5323;SDS011;2684;48.154;11.538;2022-08-21T01:39:39;9.00;;;8.60;;
5323;SDS011;2684;48.154;11.538;2022-08-21T01:42:07;9.33;;;8.73;;
5323;SDS011;2684;48.154;11.538;2022-08-21T01:44:34;10.57;;;9.80;;
5323;SDS011;2684;48.154;11.538;2022-08-21T01:47:06;9.73;;;9.13;;
5323;SDS011;2684;48.154;11.538;2022-08-21T01:49:35;10.23;;;9.33;;
5323;SDS011;2684;48.154;11.538;2022-08-21T01:52:03;9.63;;;9.13;;
5323;SDS011;2684;48.154;11.538;2022-08-21T01:54:31;10.23;;;9.53;;
5323;SDS011;2684;48.154;11.538;2022-08-21T01:56:59;9.80;;;9.20;;
5323;SDS011;2684;48.154;11.538;2022-08-21T01:59:27;9.80;;;9.30;;
5323;SDS011;2684;48.154;11.538;2022-08-21T02:04:29;9.53;;;8.93;;
5323;SDS011;2684;48.154;11.538;2022-08-21T02:06:56;9.57;;;9.07;;
5323;SDS011;2684;48.154;11.538;2022-08-21T02:09:23;9.27;;;8.80;;
5323;SDS011;2684;48.154;11.538;2022-08-21T02:11:50;9.60;;;9.10;;
5323;SDS011;2684;48.154;11.538;2022-08-21T02:14:18;9.60;;;9.10;;
5323;SDS011;2684;48.154;11.538;2022-08-21T02:16:45;10.37;;;9.70;;
5323;SDS011;2684;48.154;11.538;2022-08-21T02:19:13;9.93;;;9.30;;
5323;SDS011;2684;48.154;11.538;2022-08-21T02:21:41;10.00;;;9.40;;
5323;SDS011;2684;48.154;11.538;2022-08-21T02:24:09;9.87;;;9.30;;
5323;SDS011;2684;48.154;11.538;2022-08-21T02:26:37;9.50;;;9.00;;
5323;SDS011;2684;48.154;11.538;2022-08-21T02:29:05;11.43;;;9.10;;
5323;SDS011;2684;48.154;11.538;2022-08-21T02:31:33;9.90;;;9.30;;
5323;SDS011;2684;48.154;11.538;2022-08-21T02:34:00;9.70;;;9.10;;
5323;SDS011;2684;48.154;11.538;2022-08-21T02:36:27;9.40;;;8.90;;
5323;SDS011;2684;48.154;11.538;2022-08-21T02:38:54;9.37;;;8.77;;
5323;SDS011;2684;48.154;11.538;2022-08-21T02:41:21;9.10;;;8.50;;
5323;SDS011;2684;48.154;11.538;2022-08-21T02:43:48;9.77;;;9.17;;
5323;SDS011;2684;48.154;11.538;2022-08-21T02:46:16;9.50;;;9.00;;
5323;SDS011;2684;48.154;11.538;2022-08-21T02:48:46;9.50;;;8.90;;
5323;SDS011;2684;48.154;11.538;2022-08-21T02:51:15;9.50;;;9.00;;
5323;SDS011;2684;48.154;11.538;2022-08-21T02:53:43;10.00;;;9.40;;
5323;SDS011;2684;48.154;11.538;2022-08-21T02:56:11;9.53;;;9.03;;
5323;SDS011;2684;48.154;11.538;2022-08-21T02:58:40;9.70;;;9.10;;
5323;SDS011;2684;48.154;11.538;2022-08-21T03:01:09;9.43;;;8.87;;
5323;SDS011;2684;48.154;11.538;2022-08-21T03:03:36;9.40;;;8.90;;
5323;SDS011;2684;48.154;11.538;2022-08-21T03:06:06;9.67;;;8.97;;
5323;SDS011;2684;48.154;11.538;2022-08-21T03:08:35;10.07;;;9.27;;
5323;SDS011;2684;48.154;11.538;2022-08-21T03:11:02;8.40;;;8.00;;
5323;SDS011;2684;48.154;11.538;2022-08-21T03:13:30;9.17;;;8.67;;
5323;SDS011;2684;48.154;11.538;2022-08-21T03:15:57;9.50;;;9.00;;
5323;SDS011;2684;48.154;11.538;2022-08-21T03:18:24;22.23;;;9.00;;
5323;SDS011;2684;48.154;11.538;2022-08-21T03:20:51;9.87;;;9.37;;
5323;SDS011;2684;48.154;11.538;2022-08-21T03:23:20;9.07;;;8.57;;
5323;SDS011;2684;48.154;11.538;2022-08-21T03:25:47;9.27;;;8.70;;
5323;SDS011;2684;48.154;11.538;2022-08-21T03:28:16;10.07;;;9.50;;
5323;SDS011;2684;48.154;11.538;2022-08-21T03:30:46;12.23;;;9.67;;
5323;SDS011;2684;48.154;11.538;2022-08-21T03:33:15;8.70;;;8.30;;
5323;SDS011;2684;48.154;11.538;2022-08-21T03:35:42;8.73;;;8.33;;
5323;SDS011;2684;48.154;11.538;2022-08-21T03:38:11;9.40;;;8.80;;
5323;SDS011;2684;48.154;11.538;2022-08-21T03:40:40;9.80;;;9.30;;
5323;SDS011;2684;48.154;11.538;2022-08-21T03:43:07;9.80;;;9.20;;
5323;SDS011;2684;48.154;11.538;2022-08-21T03:45:35;9.63;;;9.10;;
5323;SDS011;2684;48.154;11.538;2022-08-21T03:48:02;9.40;;;8.83;;
5323;SDS011;2684;48.154;11.538;2022-08-21T03:50:32;9.77;;;9.17;;
5323;SDS011;2684;48.154;11.538;2022-08-21T03:53:00;10.53;;;9.73;;
5323;SDS011;2684;48.154;11.538;2022-08-21T03:55:27;9.90;;;9.30;;
5323;SDS011;2684;48.154;11.538;2022-08-21T03:57:56;10.30;;;9.60;;
5323;SDS011;2684;48.154;11.538;2022-08-21T04:00:23;9.50;;;9.00;;
5323;SDS011;2684;48.154;11.538;2022-08-21T04:02:50;9.30;;;8.80;;
5323;SDS011;2684;48.154;11.538;2022-08-21T04:05:17;8.93;;;8.43;;
5323;SDS011;2684;48.154;11.538;2022-08-21T04:07:52;10.13;;;9.10;;
5323;SDS011;2684;48.154;11.538;2022-08-21T04:10:20;10.30;;;9.60;;
5323;SDS011;2684;48.154;11.538;2022-08-21T04:12:47;11.37;;;10.43;;
5323;SDS011;2684;48.154;11.538;2022-08-21T04:15:15;10.73;;;10.00;;
5323;SDS011;2684;48.154;11.538;2022-08-21T04:17:42;9.50;;;9.00;;
5323;SDS011;2684;48.154;11.538;2022-08-21T04:20:09;9.83;;;9.23;;
5323;SDS011;2684;48.154;11.538;2022-08-21T04:22:37;10.07;;;9.37;;
5323;SDS011;2684;48.154;11.538;2022-08-21T04:25:04;9.10;;;8.60;;
5323;SDS011;2684;48.154;11.538;2022-08-21T04:27:32;9.87;;;9.30;;
5323;SDS011;2684;48.154;11.538;2022-08-21T04:29:59;10.07;;;9.37;;
5323;SDS011;2684;48.154;11.538;2022-08-21T04:32:27;9.83;;;9.30;;
5323;SDS011;2684;48.154;11.538;2022-08-21T04:34:57;10.97;;;10.07;;
5323;SDS011;2684;48.154;11.538;2022-08-21T04:37:26;9.70;;;9.20;;
5323;SDS011;2684;48.154;11.538;2022-08-21T04:39:53;9.83;;;9.23;;
5323;SDS011;2684;48.154;11.538;2022-08-21T04:42:21;11.93;;;10.93;;
5323;SDS011;2684;48.154;11.538;2022-08-21T04:44:48;10.20;;;9.60;;
5323;SDS011;2684;48.154;11.538;2022-08-21T04:47:15;9.90;;;9.30;;
5323;SDS011;2684;48.154;11.538;2022-08-21T04:49:44;10.80;;;10.00;;
5323;SDS011;2684;48.154;11.538;2022-08-21T04:52:11;10.30;;;9.70;;
5323;SDS011;2684;48.154;11.538;2022-08-21T04:54:39;10.50;;;9.70;;
5323;SDS011;2684;48.154;11.538;2022-08-21T04:57:09;10.27;;;9.57;;
5323;SDS011;2684;48.154;11.538;2022-08-21T04:59:36;10.20;;;9.60;;
5323;SDS011;2684;48.154;11.538;2022-08-21T05:02:06;10.30;;;9.67;;
5323;SDS011;2684;48.154;11.538;2022-08-21T05:04:34;9.83;;;9.23;;
5323;SDS011;2684;48.154;11.538;2022-08-21T05:07:07;9.70;;;9.10;;
5323;SDS011;2684;48.154;11.538;2022-08-21T05:09:38;10.30;;;9.60;;
5323;SDS011;2684;48.154;11.538;2022-08-21T05:12:05;10.13;;;9.53;;
5323;SDS011;2684;48.154;11.538;2022-08-21T05:14:32;10.50;;;9.80;;
5323;SDS011;2684;48.154;11.538;2022-08-21T05:17:00;11.67;;;10.67;;
5323;SDS011;2684;48.154;11.538;2022-08-21T05:19:27;10.53;;;9.83;;
5323;SDS011;2684;48.154;11.538;2022-08-21T05:21:54;10.83;;;10.07;;
5323;SDS011;2684;48.154;11.538;2022-08-21T05:24:23;10.47;;;9.77;;
5323;SDS011;2684;48.154;11.538;2022-08-21T05:26:51;12.00;;;10.87;;
5323;SDS011;2684;48.154;11.538;2022-08-21T05:29:17;13.33;;;10.70;;
5323;SDS011;2684;48.154;11.538;2022-08-21T05:31:45;10.63;;;9.70;;
5323;SDS011;2684;48.154;11.538;2022-08-21T05:34:13;10.77;;;10.13;;
5323;SDS011;2684;48.154;11.538;2022-08-21T05:36:40;10.50;;;9.90;;
5323;SDS011;2684;48.154;11.538;2022-08-21T05:39:07;12.50;;;11.30;;
5323;SDS011;2684;48.154;11.538;2022-08-21T05:41:35;10.47;;;9.87;;
5323;SDS011;2684;48.154;11.538;2022-08-21T05:44:02;10.47;;;9.77;;
5323;SDS011;2684;48.154;11.538;2022-08-21T05:46:29;10.13;;;9.53;;
5323;SDS011;2684;48.154;11.538;2022-08-21T05:48:56;10.93;;;10.23;;
5323;SDS011;2684;48.154;11.538;2022-08-21T05:51:23;11.20;;;10.37;;
5323;SDS011;2684;48.154;11.538;2022-08-21T05:53:50;11.00;;;10.00;;
5323;SDS011;2684;48.154;11.538;2022-08-21T05:56:17;10.70;;;9.97;;
5323;SDS011;2684;48.154;11.538;2022-08-21T05:58:45;10.40;;;9.70;;
5323;SDS011;2684;48.154;11.538;2022-08-21T06:01:12;10.50;;;9.90;;
5323;SDS011;2684;48.154;11.538;2022-08-21T06:03:40;10.33;;;9.73;;
5323;SDS011;2684;48.154;11.538;2022-08-21T06:06:07;10.40;;;9.80;;
5323;SDS011;2684;48.154;11.538;2022-08-21T06:08:35;10.70;;;9.90;;
5323;SDS011;2684;48.154;11.538;2022-08-21T06:14:26;10.80;;;10.10;;
5323;SDS011;2684;48.154;11.538;2022-08-21T06:16:53;10.97;;;10.30;;
5323;SDS011;2684;48.154;11.538;2022-08-21T06:19:20;11.80;;;10.60;;
5323;SDS011;2684;48.154;11.538;2022-08-21T06:21:46;12.50;;;11.40;;
5323;SDS011;2684;48.154;11.538;2022-08-21T06:24:13;13.63;;;12.37;;
5323;SDS011;2684;48.154;11.538;2022-08-21T06:26:40;11.03;;;10.33;;
5323;SDS011;2684;48.154;11.538;2022-08-21T06:29:07;15.00;;;10.60;;
5323;SDS011;2684;48.154;11.538;2022-08-21T06:31:38;12.30;;;11.30;;
5323;SDS011;2684;48.154;11.538;2022-08-21T06:34:05;11.80;;;10.90;;
5323;SDS011;2684;48.154;11.538;2022-08-21T06:36:32;12.60;;;11.60;;
5323;SDS011;2684;48.154;11.538;2022-08-21T06:38:59;11.60;;;10.80;;
5323;SDS011;2684;48.154;11.538;2022-08-21T06:41:26;12.60;;;11.43;;
5323;SDS011;2684;48.154;11.538;2022-08-21T06:43:53;11.00;;;10.20;;
5323;SDS011;2684;48.154;11.538;2022-08-21T06:46:21;11.20;;;10.50;;
5323;SDS011;2684;48.154;11.538;2022-08-21T06:48:49;13.43;;;12.20;;
5323;SDS011;2684;48.154;11.538;2022-08-21T06:51:16;11.90;;;11.10;;
5323;SDS011;2684;48.154;11.538;2022-08-21T06:53:44;11.70;;;10.80;;
5323;SDS011;2684;48.154;11.538;2022-08-21T06:56:11;11.77;;;10.97;;
5323;SDS011;2684;48.154;11.538;2022-08-21T06:58:38;12.57;;;11.53;;
5323;SDS011;2684;48.154;11.538;2022-08-21T07:01:05;14.13;;;12.70;;
5323;SDS011;2684;48.154;11.538;2022-08-21T07:03:32;11.40;;;10.60;;
5323;SDS011;2684;48.154;11.538;2022-08-21T07:06:02;12.63;;;11.70;;
5323;SDS011;2684;48.154;11.538;2022-08-21T07:08:30;12.97;;;11.87;;
5323;SDS011;2684;48.154;11.538;2022-08-21T07:10:58;12.17;;;11.27;;
5323;SDS011;2684;48.154;11.538;2022-08-21T07:13:26;11.77;;;10.97;;
5323;SDS011;2684;48.154;11.538;2022-08-21T07:15:53;12.90;;;11.90;;
5323;SDS011;2684;48.154;11.538;2022-08-21T07:18:20;29.83;;;11.90;;
5323;SDS011;2684;48.154;11.538;2022-08-21T07:20:47;19.37;;;17.30;;
5323;SDS011;2684;48.154;11.538;2022-08-21T07:23:18;12.57;;;11.57;;
5323;SDS011;2684;48.154;11.538;2022-08-21T07:25:48;12.60;;;11.70;;
5323;SDS011;2684;48.154;11.538;2022-08-21T07:28:15;12.80;;;11.60;;
5323;SDS011;2684;48.154;11.538;2022-08-21T07:30:42;12.40;;;11.60;;
5323;SDS011;2684;48.154;11.538;2022-08-21T07:33:09;13.00;;;11.80;;
5323;SDS011;2684;48.154;11.538;2022-08-21T07:35:36;13.17;;;12.23;;
5323;SDS011;2684;48.154;11.538;2022-08-21T07:38:03;12.43;;;11.33;;
5323;SDS011;2684;48.154;11.538;2022-08-21T07:40:32;14.47;;;13.20;;
5323;SDS011;2684;48.154;11.538;2022-08-21T07:42:59;13.53;;;12.53;;
5323;SDS011;2684;48.154;11.538;2022-08-21T07:45:25;12.77;;;11.87;;
5323;SDS011;2684;48.154;11.538;2022-08-21T07:47:53;12.73;;;11.83;;
5323;SDS011;2684;48.154;11.538;2022-08-21T07:50:20;13.67;;;12.67;;
5323;SDS011;2684;48.154;11.538;2022-08-21T07:52:47;13.77;;;12.70;;
5323;SDS011;2684;48.154;11.538;2022-08-21T07:55:15;13.87;;;12.77;;
5323;SDS011;2684;48.154;11.538;2022-08-21T07:57:44;13.20;;;12.30;;
5323;SDS011;2684;48.154;11.538;2022-08-21T08:00:12;14.57;;;12.93;;
5323;SDS011;2684;48.154;11.538;2022-08-21T08:05:14;14.17;;;12.97;;
5323;SDS011;2684;48.154;11.538;2022-08-21T08:07:41;14.70;;;13.43;;
5323;SDS011;2684;48.154;11.538;2022-08-21T08:10:08;14.90;;;13.67;;
5323;SDS011;2684;48.154;11.538;2022-08-21T08:12:36;14.63;;;13.23;;
5323;SDS011;2684;48.154;11.538;2022-08-21T08:15:07;14.60;;;13.47;;
5323;SDS011;2684;48.154;11.538;2022-08-21T08:17:36;14.87;;;13.67;;
5323;SDS011;2684;48.154;11.538;2022-08-21T08:20:04;14.07;;;13.00;;
5323;SDS011;2684;48.154;11.538;2022-08-21T08:22:33;17.33;;;15.50;;
5323;SDS011;2684;48.154;11.538;2022-08-21T08:25:02;44.70;;;28.30;;
5323;SDS011;2684;48.154;11.538;2022-08-21T08:27:31;18.10;;;16.20;;
5323;SDS011;2684;48.154;11.538;2022-08-21T08:29:58;15.17;;;13.87;;
5323;SDS011;2684;48.154;11.538;2022-08-21T08:32:28;14.80;;;13.70;;
5323;SDS011;2684;48.154;11.538;2022-08-21T08:34:54;16.33;;;14.60;;
5323;SDS011;2684;48.154;11.538;2022-08-21T08:37:21;15.53;;;14.20;;
5323;SDS011;2684;48.154;11.538;2022-08-21T08:39:48;14.27;;;12.87;;
5323;SDS011;2684;48.154;11.538;2022-08-21T08:42:16;14.90;;;13.70;;
5323;SDS011;2684;48.154;11.538;2022-08-21T08:44:55;13.90;;;12.80;;
5323;SDS011;2684;48.154;11.538;2022-08-21T08:47:29;14.50;;;13.30;;
5323;SDS011;2684;48.154;11.538;2022-08-21T08:49:58;14.30;;;13.20;;
5323;SDS011;2684;48.154;11.538;2022-08-21T08:52:30;15.10;;;13.70;;
5323;SDS011;2684;48.154;11.538;2022-08-21T08:55:01;18.83;;;16.53;;
5323;SDS011;2684;48.154;11.538;2022-08-21T08:57:30;15.67;;;14.27;;
5323;SDS011;2684;48.154;11.538;2022-08-21T09:00:00;16.03;;;14.30;;
5323;SDS011;2684;48.154;11.538;2022-08-21T09:02:31;16.40;;;14.73;;
5323;SDS011;2684;48.154;11.538;2022-08-21T09:04:59;14.57;;;13.43;;
5323;SDS011;2684;48.154;11.538;2022-08-21T09:07:30;14.47;;;13.20;;
5323;SDS011;2684;48.154;11.538;2022-08-21T09:10:11;14.50;;;13.30;;
5323;SDS011;2684;48.154;11.538;2022-08-21T09:12:46;14.90;;;13.70;;
5323;SDS011;2684;48.154;11.538;2022-08-21T09:15:22;14.37;;;13.27;;
5323;SDS011;2684;48.154;11.538;2022-08-21T09:17:59;14.63;;;13.43;;
5323;SDS011;2684;48.154;11.538;2022-08-21T09:20:47;17.17;;;15.43;;
5323;SDS011;2684;48.154;11.538;2022-08-21T09:23:25;20.27;;;16.10;;
5323;SDS011;2684;48.154;11.538;2022-08-21T09:26:02;20.30;;;18.10;;
5323;SDS011;2684;48.154;11.538;2022-08-21T09:28:34;18.33;;;16.53;;
5323;SDS011;2684;48.154;11.538;2022-08-21T09:31:02;19.17;;;15.40;;
5323;SDS011;2684;48.154;11.538;2022-08-21T09:33:34;14.10;;;12.90;;
5323;SDS011;2684;48.154;11.538;2022-08-21T09:36:01;14.57;;;13.27;;
5323;SDS011;2684;48.154;11.538;2022-08-21T09:38:30;15.07;;;13.33;;
5323;SDS011;2684;48.154;11.538;2022-08-21T09:41:01;15.17;;;13.87;;
5323;SDS011;2684;48.154;11.538;2022-08-21T09:43:32;14.50;;;12.80;;
5323;SDS011;2684;48.154;11.538;2022-08-21T09:46:06;14.30;;;13.20;;
5323;SDS011;2684;48.154;11.538;2022-08-21T09:48:41;13.70;;;12.70;;
5323;SDS011;2684;48.154;11.538;2022-08-21T09:51:12;14.57;;;13.27;;
5323;SDS011;2684;48.154;11.538;2022-08-21T09:53:44;14.73;;;13.53;;
5323;SDS011;2684;48.154;11.538;2022-08-21T09:59:24;29.87;;;23.60;;
5323;SDS011;2684;48.154;11.538;2022-08-21T10:01:55;13.00;;;12.00;;
5323;SDS011;2684;48.154;11.538;2022-08-21T10:04:27;18.67;;;16.53;;
5323;SDS011;2684;48.154;11.538;2022-08-21T10:07:05;19.17;;;16.73;;
5323;SDS011;2684;48.154;11.538;2022-08-21T10:09:33;17.00;;;15.20;;
5323;SDS011;2684;48.154;11.538;2022-08-21T10:12:06;17.27;;;14.27;;
5323;SDS011;2684;48.154;11.538;2022-08-21T10:14:42;15.10;;;13.80;;
5323;SDS011;2684;48.154;11.538;2022-08-21T10:17:20;13.63;;;12.60;;
5323;SDS011;2684;48.154;11.538;2022-08-21T10:19:55;15.67;;;14.27;;
5323;SDS011;2684;48.154;11.538;2022-08-21T10:22:32;14.13;;;12.93;;
5323;SDS011;2684;48.154;11.538;2022-08-21T10:25:08;13.77;;;12.67;;
5323;SDS011;2684;48.154;11.538;2022-08-21T10:27:43;14.00;;;12.90;;
5323;SDS011;2684;48.154;11.538;2022-08-21T10:30:17;13.87;;;12.77;;
5323;SDS011;2684;48.154;11.538;2022-08-21T10:32:55;14.67;;;13.20;;
5323;SDS011;2684;48.154;11.538;2022-08-21T10:35:34;15.67;;;14.27;;
5323;SDS011;2684;48.154;11.538;2022-08-21T10:38:28;14.83;;;13.40;;
5323;SDS011;2684;48.154;11.538;2022-08-21T10:41:18;14.10;;;12.87;;
5323;SDS011;2684;48.154;11.538;2022-08-21T10:43:54;13.70;;;12.60;;
5323;SDS011;2684;48.154;11.538;2022-08-21T10:46:36;14.47;;;13.37;;
5323;SDS011;2684;48.154;11.538;2022-08-21T10:49:12;14.33;;;13.03;;
5323;SDS011;2684;48.154;11.538;2022-08-21T10:51:54;13.80;;;12.80;;
5323;SDS011;2684;48.154;11.538;2022-08-21T10:54:31;14.10;;;13.07;;
5323;SDS011;2684;48.154;11.538;2022-08-21T10:57:06;13.10;;;12.20;;
5323;SDS011;2684;48.154;11.538;2022-08-21T10:59:38;13.27;;;12.30;;
5323;SDS011;2684;48.154;11.538;2022-08-21T11:02:13;13.57;;;12.30;;
5323;SDS011;2684;48.154;11.538;2022-08-21T11:04:49;13.00;;;12.10;;
5323;SDS011;2684;48.154;11.538;2022-08-21T11:07:25;13.70;;;12.60;;
5323;SDS011;2684;48.154;11.538;2022-08-21T11:09:57;13.47;;;12.57;;
5323;SDS011;2684;48.154;11.538;2022-08-21T11:12:29;14.60;;;13.50;;
5323;SDS011;2684;48.154;11.538;2022-08-21T11:15:03;15.13;;;13.87;;
5323;SDS011;2684;48.154;11.538;2022-08-21T11:17:39;14.03;;;12.93;;
5323;SDS011;2684;48.154;11.538;2022-08-21T11:20:12;14.70;;;13.50;;
5323;SDS011;2684;48.154;11.538;2022-08-21T11:22:50;14.27;;;13.17;;
5323;SDS011;2684;48.154;11.538;2022-08-21T11:25:23;14.10;;;13.10;;
5323;SDS011;2684;48.154;11.538;2022-08-21T11:27:58;13.53;;;12.53;;
5323;SDS011;2684;48.154;11.538;2022-08-21T11:33:19;13.90;;;12.90;;
5323;SDS011;2684;48.154;11.538;2022-08-21T11:35:54;13.57;;;12.60;;
5323;SDS011;2684;48.154;11.538;2022-08-21T11:38:32;13.43;;;12.43;;
5323;SDS011;2684;48.154;11.538;2022-08-21T11:41:08;13.93;;;12.93;;
5323;SDS011;2684;48.154;11.538;2022-08-21T11:43:43;13.80;;;12.80;;
5323;SDS011;2684;48.154;11.538;2022-08-21T11:46:16;14.40;;;13.30;;
5323;SDS011;2684;48.154;11.538;2022-08-21T11:48:53;15.70;;;14.17;;
5323;SDS011;2684;48.154;11.538;2022-08-21T11:51:31;14.93;;;13.73;;
5323;SDS011;2684;48.154;11.538;2022-08-21T11:54:07;14.83;;;13.63;;
5323;SDS011;2684;48.154;11.538;2022-08-21T11:56:40;14.00;;;13.00;;
5323;SDS011;2684;48.154;11.538;2022-08-21T11:59:12;14.87;;;13.77;;
5323;SDS011;2684;48.154;11.538;2022-08-21T12:01:46;14.83;;;13.70;;
5323;SDS011;2684;48.154;11.538;2022-08-21T12:04:17;14.17;;;13.17;;
5323;SDS011;2684;48.154;11.538;2022-08-21T12:06:48;13.30;;;12.40;;
5323;SDS011;2684;48.154;11.538;2022-08-21T12:09:29;13.53;;;12.33;;
5323;SDS011;2684;48.154;11.538;2022-08-21T12:12:01;13.77;;;12.77;;
5323;SDS011;2684;48.154;11.538;2022-08-21T12:14:37;14.00;;;12.90;;
5323;SDS011;2684;48.154;11.538;2022-08-21T12:17:07;14.00;;;13.00;;
5323;SDS011;2684;48.154;11.538;2022-08-21T12:19:42;13.67;;;12.67;;
5323;SDS011;2684;48.154;11.538;2022-08-21T12:22:10;14.00;;;13.00;;
5323;SDS011;2684;48.154;11.538;2022-08-21T12:24:41;14.07;;;13.07;;
5323;SDS011;2684;48.154;11.538;2022-08-21T12:27:19;14.17;;;12.97;;
5323;SDS011;2684;48.154;11.538;2022-08-21T12:29:51;14.10;;;13.10;;
5323;SDS011;2684;48.154;11.538;2022-08-21T12:32:23;13.23;;;12.33;;
5323;SDS011;2684;48.154;11.538;2022-08-21T12:34:52;12.93;;;12.10;;
5323;SDS011;2684;48.154;11.538;2022-08-21T12:37:24;15.10;;;13.70;;
5323;SDS011;2684;48.154;11.538;2022-08-21T12:39:59;15.23;;;13.83;;
5323;SDS011;2684;48.154;11.538;2022-08-21T12:42:30;19.40;;;17.50;;
5323;SDS011;2684;48.154;11.538;2022-08-21T12:45:00;13.70;;;12.60;;
5323;SDS011;2684;48.154;11.538;2022-08-21T12:47:31;13.97;;;12.77;;
5323;SDS011;2684;48.154;11.538;2022-08-21T12:50:02;12.60;;;11.70;;
5323;SDS011;2684;48.154;11.538;2022-08-21T12:52:33;13.23;;;12.33;;
5323;SDS011;2684;48.154;11.538;2022-08-21T12:55:04;13.00;;;12.10;;
5323;SDS011;2684;48.154;11.538;2022-08-21T12:57:31;13.00;;;12.07;;
5323;SDS011;2684;48.154;11.538;2022-08-21T13:00:04;12.37;;;11.57;;
5323;SDS011;2684;48.154;11.538;2022-08-21T13:02:35;13.60;;;12.70;;
5323;SDS011;2684;48.154;11.538;2022-08-21T13:05:11;13.60;;;12.70;;
5323;SDS011;2684;48.154;11.538;2022-08-21T13:07:42;13.70;;;12.60;;
5323;SDS011;2684;48.154;11.538;2022-08-21T13:10:17;14.43;;;13.10;;
5323;SDS011;2684;48.154;11.538;2022-08-21T13:12:46;13.80;;;12.80;;
5323;SDS011;2684;48.154;11.538;2022-08-21T13:15:13;13.13;;;12.23;;
5323;SDS011;2684;48.154;11.538;2022-08-21T13:17:41;13.47;;;12.57;;
5323;SDS011;2684;48.154;11.538;2022-08-21T13:20:19;13.57;;;12.57;;
5323;SDS011;2684;48.154;11.538;2022-08-21T13:22:47;14.10;;;13.10;;
5323;SDS011;2684;48.154;11.538;2022-08-21T13:25:17;12.90;;;12.00;;
5323;SDS011;2684;48.154;11.538;2022-08-21T13:27:56;13.70;;;12.40;;
5323;SDS011;2684;48.154;11.538;2022-08-21T13:30:27;14.20;;;13.20;;
5323;SDS011;2684;48.154;11.538;2022-08-21T13:32:56;14.20;;;13.00;;
5323;SDS011;2684;48.154;11.538;2022-08-21T13:35:25;14.40;;;13.10;;
5323;SDS011;2684;48.154;11.538;2022-08-21T13:37:54;13.93;;;12.83;;
5323;SDS011;2684;48.154;11.538;2022-08-21T13:40:26;14.03;;;13.00;;
5323;SDS011;2684;48.154;11.538;2022-08-21T13:42:56;13.33;;;12.33;;
5323;SDS011;2684;48.154;11.538;2022-08-21T13:45:24;13.20;;;12.20;;
5323;SDS011;2684;48.154;11.538;2022-08-21T13:47:53;12.30;;;11.33;;
5323;SDS011;2684;48.154;11.538;2022-08-21T13:50:22;12.33;;;11.63;;
5323;SDS011;2684;48.154;11.538;2022-08-21T13:52:55;12.83;;;12.03;;
5323;SDS011;2684;48.154;11.538;2022-08-21T13:55:33;13.53;;;12.50;;
5323;SDS011;2684;48.154;11.538;2022-08-21T13:58:02;14.00;;;13.00;;
5323;SDS011;2684;48.154;11.538;2022-08-21T14:00:31;13.27;;;12.37;;
5323;SDS011;2684;48.154;11.538;2022-08-21T14:03:00;14.73;;;13.30;;
5323;SDS011;2684;48.154;11.538;2022-08-21T14:05:31;14.00;;;13.00;;
5323;SDS011;2684;48.154;11.538;2022-08-21T14:08:02;14.10;;;12.87;;
5323;SDS011;2684;48.154;11.538;2022-08-21T14:10:34;13.23;;;12.33;;
5323;SDS011;2684;48.154;11.538;2022-08-21T14:13:03;13.90;;;12.77;;
5323;SDS011;2684;48.154;11.538;2022-08-21T14:15:33;15.13;;;13.80;;
5323;SDS011;2684;48.154;11.538;2022-08-21T14:18:07;13.60;;;12.50;;
5323;SDS011;2684;48.154;11.538;2022-08-21T14:20:35;12.50;;;11.70;;
5323;SDS011;2684;48.154;11.538;2022-08-21T14:23:02;14.20;;;12.97;;
5323;SDS011;2684;48.154;11.538;2022-08-21T14:25:31;12.83;;;11.97;;
5323;SDS011;2684;48.154;11.538;2022-08-21T14:28:10;14.07;;;13.07;;
5323;SDS011;2684;48.154;11.538;2022-08-21T14:30:45;13.40;;;12.50;;
5323;SDS011;2684;48.154;11.538;2022-08-21T14:33:13;13.27;;;12.37;;
5323;SDS011;2684;48.154;11.538;2022-08-21T14:35:47;12.37;;;11.47;;
5323;SDS011;2684;48.154;11.538;2022-08-21T14:38:14;11.77;;;11.07;;
5323;SDS011;2684;48.154;11.538;2022-08-21T14:40:44;12.40;;;11.60;;
5323;SDS011;2684;48.154;11.538;2022-08-21T14:43:14;12.30;;;11.50;;
5323;SDS011;2684;48.154;11.538;2022-08-21T14:45:44;13.37;;;12.47;;
5323;SDS011;2684;48.154;11.538;2022-08-21T14:48:11;12.20;;;11.40;;
5323;SDS011;2684;48.154;11.538;2022-08-21T14:50:38;11.90;;;11.20;;
5323;SDS011;2684;48.154;11.538;2022-08-21T14:53:05;12.73;;;11.93;;
5323;SDS011;2684;48.154;11.538;2022-08-21T14:55:33;14.80;;;13.60;;
5323;SDS011;2684;48.154;11.538;2022-08-21T14:58:23;15.10;;;13.90;;
5323;SDS011;2684;48.154;11.538;2022-08-21T15:00:51;12.50;;;11.60;;
5323;SDS011;2684;48.154;11.538;2022-08-21T15:03:19;12.93;;;12.13;;
5323;SDS011;2684;48.154;11.538;2022-08-21T15:05:47;12.32;;;11.48;;
5323;SDS011;2684;48.154;11.538;2022-08-21T15:08:15;12.82;;;11.98;;
5323;SDS011;2684;48.154;11.538;2022-08-21T15:10:43;12.52;;;11.40;;
5323;SDS011;2684;48.154;11.538;2022-08-21T15:13:10;12.85;;;12.00;;
5323;SDS011;2684;48.154;11.538;2022-08-21T15:15:41;11.93;;;11.20;;
5323;SDS011;2684;48.154;11.538;2022-08-21T15:18:11;12.80;;;11.80;;